createdAt,value
2023-02-17T00:01:43.055Z,9.20
2023-02-17T00:04:15.584Z,9.20
2023-02-17T00:06:48.727Z,9.22
2023-02-17T00:09:21.036Z,9.21
2023-02-17T00:11:54.339Z,9.20
2023-02-17T00:14:27.154Z,9.21
2023-02-17T00:17:06.235Z,9.22
2023-02-17T00:19:37.787Z,9.22
2023-02-17T00:22:18.522Z,9.23
2023-02-17T00:24:53.361Z,9.23
2023-02-17T00:27:21.144Z,9.23
2023-02-17T00:30:10.314Z,9.24
2023-02-17T00:32:38.258Z,9.25
2023-02-17T00:35:11.063Z,9.28
2023-02-17T00:40:30.151Z,9.44
2023-02-17T00:43:03.688Z,9.47
2023-02-17T00:45:34.009Z,9.48
2023-02-17T00:48:07.728Z,9.52
2023-02-17T00:50:35.608Z,9.55
2023-02-17T00:53:05.357Z,9.57
2023-02-17T00:55:42.321Z,9.59
2023-02-17T00:58:20.388Z,9.61
2023-02-17T01:00:52.072Z,9.62
2023-02-17T01:03:23.836Z,9.63
2023-02-17T01:05:54.762Z,9.63
2023-02-17T01:08:25.606Z,9.63
2023-02-17T01:10:56.336Z,9.66
2023-02-17T01:13:26.781Z,9.68
2023-02-17T01:15:57.174Z,9.71
2023-02-17T01:18:25.183Z,9.70
2023-02-17T01:20:55.255Z,9.73
2023-02-17T01:23:26.581Z,9.74
2023-02-17T01:26:04.319Z,9.75
2023-02-17T01:28:37.109Z,9.76
2023-02-17T01:31:11.774Z,9.75
2023-02-17T01:33:42.349Z,9.76
2023-02-17T01:36:15.512Z,9.77
2023-02-17T01:38:51.304Z,9.78
2023-02-17T01:41:31.730Z,9.80
2023-02-17T01:44:26.460Z,9.79
2023-02-17T01:46:57.137Z,9.81
2023-02-17T01:49:43.789Z,9.83
2023-02-17T01:52:37.102Z,9.80
2023-02-17T01:55:16.661Z,9.82
2023-02-17T01:57:48.920Z,9.83
2023-02-17T02:00:20.891Z,9.80
2023-02-17T02:02:59.964Z,9.82
2023-02-17T02:05:35.009Z,9.82
2023-02-17T02:08:09.261Z,9.82
2023-02-17T02:10:38.895Z,9.83
2023-02-17T02:13:10.638Z,9.85
2023-02-17T02:16:08.919Z,9.86
2023-02-17T02:19:51.009Z,9.85
2023-02-17T02:23:24.873Z,9.84
2023-02-17T02:26:25.966Z,9.82
2023-02-17T02:30:10.676Z,9.82
2023-02-17T02:33:07.962Z,9.82
2023-02-17T02:36:29.695Z,9.79
2023-02-17T02:39:18.164Z,9.81
2023-02-17T02:42:04.819Z,9.80
2023-02-17T02:44:32.798Z,9.79
2023-02-17T02:47:26.296Z,9.79
2023-02-17T02:49:55.785Z,9.79
2023-02-17T02:53:18.463Z,9.79
2023-02-17T02:56:43.760Z,9.76
2023-02-17T03:00:02.390Z,9.76
2023-02-17T03:03:15.752Z,9.74
2023-02-17T03:06:28.305Z,9.72
2023-02-17T03:09:22.693Z,9.70
2023-02-17T03:11:55.822Z,9.72
2023-02-17T03:14:27.395Z,9.71
2023-02-17T03:16:58.543Z,9.71
2023-02-17T03:19:29.398Z,9.69
2023-02-17T03:22:16.487Z,9.67
2023-02-17T03:24:49.971Z,9.67
2023-02-17T03:27:21.234Z,9.65
2023-02-17T03:29:49.074Z,9.66
2023-02-17T03:32:20.270Z,9.67
2023-02-17T03:34:56.765Z,9.68
2023-02-17T03:37:24.576Z,9.67
2023-02-17T03:39:59.802Z,9.64
2023-02-17T03:42:28.832Z,9.65
2023-02-17T03:44:57.455Z,9.64
2023-02-17T03:47:26.983Z,9.66
2023-02-17T03:49:58.043Z,9.64
2023-02-17T03:52:33.064Z,9.67
2023-02-17T03:55:03.078Z,9.67
2023-02-17T03:57:41.127Z,9.66
2023-02-17T04:00:21.948Z,9.68
2023-02-17T04:02:57.304Z,9.67
2023-02-17T04:05:25.711Z,9.68
2023-02-17T04:07:54.186Z,9.69
2023-02-17T04:10:22.716Z,9.67
2023-02-17T04:12:53.245Z,9.68
2023-02-17T04:15:21.132Z,9.67
2023-02-17T04:17:54.450Z,9.67
2023-02-17T04:20:24.941Z,9.68
2023-02-17T04:22:52.404Z,9.68
2023-02-17T04:25:21.491Z,9.68
2023-02-17T04:27:52.394Z,9.69
2023-02-17T04:30:21.206Z,9.68
2023-02-17T04:32:56.621Z,9.68
2023-02-17T04:35:25.603Z,9.71
2023-02-17T04:37:56.030Z,9.70
2023-02-17T04:40:24.364Z,9.71
2023-02-17T04:42:54.603Z,9.68
2023-02-17T04:45:27.621Z,9.67
2023-02-17T04:47:56.114Z,9.70
2023-02-17T04:50:23.852Z,9.68
2023-02-17T04:52:54.566Z,9.67
2023-02-17T04:55:23.308Z,9.68
2023-02-17T04:57:53.593Z,9.69
2023-02-17T05:00:25.800Z,9.64
2023-02-17T05:02:53.675Z,9.68
2023-02-17T05:05:23.843Z,9.67
2023-02-17T05:07:53.371Z,9.67
2023-02-17T05:10:23.706Z,9.66
2023-02-17T05:12:53.276Z,9.65
2023-02-17T05:15:23.092Z,9.66
2023-02-17T05:17:51.069Z,9.61
2023-02-17T05:20:22.162Z,9.56
2023-02-17T05:22:52.299Z,9.51
2023-02-17T05:25:20.478Z,9.50
2023-02-17T05:27:48.052Z,9.53
2023-02-17T05:30:16.363Z,9.53
2023-02-17T05:32:43.902Z,9.52
2023-02-17T05:35:12.104Z,9.52
2023-02-17T05:37:39.643Z,9.50
2023-02-17T05:40:10.807Z,9.51
2023-02-17T05:42:46.610Z,9.51
2023-02-17T05:45:19.025Z,9.55
2023-02-17T05:48:13.635Z,9.57
2023-02-17T05:50:43.835Z,9.59
2023-02-17T05:53:14.013Z,9.60
2023-02-17T05:55:48.921Z,9.62
2023-02-17T05:58:35.637Z,9.58
2023-02-17T06:01:13.842Z,9.51
2023-02-17T06:03:44.704Z,9.44
2023-02-17T06:06:13.429Z,9.40
2023-02-17T06:08:43.421Z,9.37
2023-02-17T06:11:13.044Z,9.31
2023-02-17T06:13:43.812Z,9.29
2023-02-17T06:16:20.271Z,9.26
2023-02-17T06:18:49.716Z,9.24
2023-02-17T06:21:19.633Z,9.21
2023-02-17T06:23:48.795Z,9.21
2023-02-17T06:26:21.840Z,9.19
2023-02-17T06:28:49.896Z,9.18
2023-02-17T06:31:23.405Z,9.20
2023-02-17T06:34:03.877Z,9.20
2023-02-17T06:36:54.352Z,9.21
2023-02-17T06:39:33.728Z,9.21
2023-02-17T06:42:11.808Z,9.24
2023-02-17T06:44:44.847Z,9.26
2023-02-17T06:47:14.332Z,9.28
2023-02-17T06:49:51.317Z,9.31
2023-02-17T06:52:33.071Z,9.36
2023-02-17T06:55:02.224Z,9.41
2023-02-17T06:57:33.821Z,9.40
2023-02-17T07:00:12.309Z,9.46
2023-02-17T07:02:44.395Z,9.46
2023-02-17T07:05:18.422Z,9.47
2023-02-17T07:07:49.042Z,9.50
2023-02-17T07:10:19.036Z,9.54
2023-02-17T07:12:48.685Z,9.58
2023-02-17T07:15:16.754Z,9.60
2023-02-17T07:17:46.146Z,9.62
2023-02-17T07:20:20.867Z,9.66
2023-02-17T07:22:51.608Z,9.69
2023-02-17T07:25:20.459Z,9.73
2023-02-17T07:27:51.950Z,9.77
2023-02-17T07:30:28.097Z,9.76
2023-02-17T07:32:59.815Z,9.78
2023-02-17T07:35:56.632Z,9.80
2023-02-17T07:38:25.478Z,9.84
2023-02-17T07:41:06.451Z,9.87
2023-02-17T07:43:46.610Z,9.89
2023-02-17T07:46:18.859Z,9.93
2023-02-17T07:48:48.360Z,9.95
2023-02-17T07:51:22.112Z,9.97
2023-02-17T07:53:57.471Z,10.01
2023-02-17T07:56:34.306Z,10.05
2023-02-17T07:59:03.022Z,10.05
2023-02-17T08:01:32.383Z,10.10
2023-02-17T08:04:03.377Z,10.13
2023-02-17T08:06:35.231Z,10.16
2023-02-17T08:09:24.531Z,10.19
2023-02-17T08:12:10.820Z,10.22
2023-02-17T08:14:39.195Z,10.26
2023-02-17T08:17:19.444Z,10.28
2023-02-17T08:19:49.599Z,10.30
2023-02-17T08:22:21.730Z,10.32
2023-02-17T08:24:54.766Z,10.33
2023-02-17T08:27:31.880Z,10.40
2023-02-17T08:30:15.397Z,10.41
2023-02-17T08:32:52.121Z,10.45
2023-02-17T08:35:25.860Z,10.44
2023-02-17T08:37:54.651Z,10.50
2023-02-17T08:40:29.430Z,10.53
2023-02-17T08:43:03.787Z,10.57
2023-02-17T08:45:42.062Z,10.59
2023-02-17T08:48:09.830Z,10.62
2023-02-17T08:50:40.623Z,10.63
2023-02-17T08:53:09.629Z,10.63
2023-02-17T08:55:48.551Z,10.67
2023-02-17T08:58:25.648Z,10.71
2023-02-17T09:00:57.717Z,10.71
2023-02-17T09:03:26.135Z,10.73
2023-02-17T09:06:00.601Z,10.71
2023-02-17T09:08:30.049Z,10.75
2023-02-17T09:10:59.763Z,10.77
2023-02-17T09:16:16.618Z,10.82
2023-02-17T09:18:47.658Z,10.83
2023-02-17T09:21:25.008Z,10.83
2023-02-17T09:23:57.958Z,10.85
2023-02-17T09:26:27.750Z,10.87
2023-02-17T09:28:57.817Z,10.89
2023-02-17T09:31:27.697Z,10.93
2023-02-17T09:33:59.658Z,10.96
2023-02-17T09:36:40.114Z,10.99
2023-02-17T09:39:12.994Z,10.98
2023-02-17T09:41:53.393Z,11.05
2023-02-17T09:44:47.532Z,11.10
2023-02-17T09:47:24.949Z,11.13
2023-02-17T09:50:45.568Z,11.18
2023-02-17T09:53:42.904Z,11.16
2023-02-17T09:56:22.391Z,11.18
2023-02-17T09:59:03.177Z,11.17
2023-02-17T10:01:41.900Z,11.19
2023-02-17T10:04:28.051Z,11.21
2023-02-17T10:07:18.194Z,11.27
2023-02-17T10:10:06.037Z,11.30
2023-02-17T10:12:43.826Z,11.38
2023-02-17T10:15:46.254Z,11.44
2023-02-17T10:19:01.574Z,11.53
2023-02-17T10:21:42.516Z,11.62
2023-02-17T10:24:10.695Z,11.66
2023-02-17T10:27:19.619Z,11.71
2023-02-17T10:30:37.077Z,11.73
2023-02-17T10:33:39.877Z,11.72
2023-02-17T10:36:30.693Z,11.74
2023-02-17T10:39:44.258Z,11.77
2023-02-17T10:42:30.258Z,11.81
2023-02-17T10:45:35.740Z,11.81
2023-02-17T10:48:20.316Z,11.76
2023-02-17T10:50:50.224Z,11.72
2023-02-17T10:53:42.973Z,11.73
2023-02-17T10:56:40.287Z,11.71
2023-02-17T10:59:36.825Z,11.70
2023-02-17T11:02:35.807Z,11.66
2023-02-17T11:08:14.207Z,11.68
2023-02-17T11:10:43.090Z,11.64
2023-02-17T11:14:01.722Z,11.61
2023-02-17T11:16:47.618Z,11.60
2023-02-17T11:19:34.442Z,11.61
2023-02-17T11:22:26.023Z,11.63
2023-02-17T11:25:23.469Z,11.63
2023-02-17T11:28:12.087Z,11.68
2023-02-17T11:30:51.998Z,11.70
2023-02-17T11:33:50.298Z,11.74
2023-02-17T11:36:44.131Z,11.78
2023-02-17T11:39:23.907Z,11.80
2023-02-17T11:41:51.791Z,11.81
2023-02-17T11:44:29.334Z,11.82
2023-02-17T11:47:37.251Z,11.84
2023-02-17T11:50:59.390Z,11.83
2023-02-17T11:54:29.608Z,11.84
2023-02-17T11:57:58.879Z,11.84
2023-02-17T12:01:11.405Z,11.83
2023-02-17T12:04:51.662Z,11.81
2023-02-17T12:07:35.254Z,11.76
2023-02-17T12:10:59.199Z,11.73
2023-02-17T12:14:04.886Z,11.69
2023-02-17T12:17:28.200Z,11.70
2023-02-17T12:20:47.678Z,11.68
2023-02-17T12:23:49.079Z,11.68
2023-02-17T12:26:48.767Z,11.67
2023-02-17T12:30:19.156Z,11.67
2023-02-17T12:32:54.601Z,11.68
2023-02-17T12:35:55.196Z,11.69
2023-02-17T12:38:41.656Z,11.72
2023-02-17T12:41:41.545Z,11.74
2023-02-17T12:44:44.583Z,11.74
2023-02-17T12:47:55.365Z,11.74
2023-02-17T12:51:03.097Z,11.72
2023-02-17T12:54:08.229Z,11.73
2023-02-17T12:57:22.610Z,11.74
2023-02-17T12:59:54.150Z,11.76
2023-02-17T13:02:32.912Z,11.75
2023-02-17T13:05:09.032Z,11.73
2023-02-17T13:07:44.750Z,11.73
2023-02-17T13:10:43.720Z,11.73
2023-02-17T13:13:33.612Z,11.71
2023-02-17T13:16:20.234Z,11.75
2023-02-17T13:18:58.636Z,11.73
2023-02-17T13:21:57.750Z,11.72
2023-02-17T13:24:55.642Z,11.72
2023-02-17T13:27:39.224Z,11.71
2023-02-17T13:30:27.340Z,11.64
2023-02-17T13:33:31.393Z,11.64
2023-02-17T13:35:58.861Z,11.62
2023-02-17T13:38:35.610Z,11.61
2023-02-17T13:41:08.115Z,11.58
2023-02-17T13:43:44.484Z,11.57
2023-02-17T13:46:31.218Z,11.58
2023-02-17T13:49:06.962Z,11.58
2023-02-17T13:51:37.231Z,11.57
2023-02-17T13:54:19.810Z,11.56
2023-02-17T13:56:54.113Z,11.56
2023-02-17T13:59:29.956Z,11.54
2023-02-17T14:02:00.286Z,11.55
2023-02-17T14:04:44.242Z,11.53
2023-02-17T14:07:19.686Z,11.52
2023-02-17T14:10:03.349Z,11.53
2023-02-17T14:12:37.234Z,11.51
2023-02-17T14:15:26.532Z,11.48
2023-02-17T14:18:02.350Z,11.46
2023-02-17T14:20:36.793Z,11.47
2023-02-17T14:23:14.368Z,11.48
2023-02-17T14:25:47.264Z,11.49
2023-02-17T14:28:28.445Z,11.48
2023-02-17T14:30:55.857Z,11.50
2023-02-17T14:33:32.130Z,11.52
2023-02-17T14:36:07.320Z,11.54
2023-02-17T14:38:44.900Z,11.64
2023-02-17T14:41:14.344Z,11.68
2023-02-17T14:43:43.749Z,11.69
2023-02-17T14:46:15.207Z,11.72
2023-02-17T14:48:45.858Z,11.71
2023-02-17T14:51:25.214Z,11.70
2023-02-17T14:53:59.824Z,11.69
2023-02-17T14:57:02.766Z,11.68
2023-02-17T14:59:36.650Z,11.66
2023-02-17T15:02:25.478Z,11.65
2023-02-17T15:04:54.884Z,11.61
2023-02-17T15:07:25.754Z,11.65
2023-02-17T15:09:54.789Z,11.62
2023-02-17T15:12:37.204Z,11.65
2023-02-17T15:15:06.196Z,11.64
2023-02-17T15:17:34.038Z,11.63
2023-02-17T15:20:05.118Z,11.65
2023-02-17T15:22:35.179Z,11.68
2023-02-17T15:25:10.054Z,11.70
2023-02-17T15:27:40.185Z,11.70
2023-02-17T15:30:18.890Z,11.74
2023-02-17T15:32:53.076Z,11.75
2023-02-17T15:35:27.181Z,11.76
2023-02-17T15:37:59.819Z,11.77
2023-02-17T15:40:30.719Z,11.78
2023-02-17T15:43:02.811Z,11.78
2023-02-17T15:45:31.765Z,11.78
2023-02-17T15:48:26.799Z,11.78
2023-02-17T15:50:57.895Z,11.77
2023-02-17T15:53:25.989Z,11.76
2023-02-17T15:56:21.321Z,11.76
2023-02-17T15:58:52.779Z,11.74
2023-02-17T16:01:35.342Z,11.75
2023-02-17T16:04:04.894Z,11.72
2023-02-17T16:06:33.190Z,11.76
2023-02-17T16:09:03.217Z,11.74
2023-02-17T16:11:32.584Z,11.72
2023-02-17T16:14:07.750Z,11.72
2023-02-17T16:16:36.694Z,11.72
2023-02-17T16:19:06.201Z,11.70
2023-02-17T16:21:34.237Z,11.70
2023-02-17T16:24:14.377Z,11.69
2023-02-17T16:26:45.079Z,11.68
2023-02-17T16:29:22.079Z,11.67
2023-02-17T16:31:57.149Z,11.68
2023-02-17T16:34:28.493Z,11.67
2023-02-17T16:37:01.045Z,11.62
2023-02-17T16:39:32.312Z,11.64
2023-02-17T16:42:00.731Z,11.63
2023-02-17T16:44:30.106Z,11.61
2023-02-17T16:47:00.819Z,11.61
2023-02-17T16:49:35.980Z,11.58
2023-02-17T16:52:23.467Z,11.59
2023-02-17T16:55:09.430Z,11.57
2023-02-17T16:57:36.914Z,11.57
2023-02-17T17:00:07.865Z,11.58
2023-02-17T17:02:35.560Z,11.57
2023-02-17T17:05:05.217Z,11.57
2023-02-17T17:07:32.996Z,11.57
2023-02-17T17:10:16.347Z,11.57
2023-02-17T17:12:45.755Z,11.56
2023-02-17T17:15:20.790Z,11.55
2023-02-17T17:17:59.254Z,11.55
2023-02-17T17:20:36.707Z,11.56
2023-02-17T17:23:17.294Z,11.53
2023-02-17T17:25:50.986Z,11.51
2023-02-17T17:28:20.180Z,11.50
2023-02-17T17:30:49.044Z,11.48
2023-02-17T17:33:17.942Z,11.48
2023-02-17T17:35:47.896Z,11.44
2023-02-17T17:38:16.009Z,11.46
2023-02-17T17:40:53.226Z,11.44
2023-02-17T17:43:26.242Z,11.44
2023-02-17T17:46:02.844Z,11.40
2023-02-17T17:48:32.164Z,11.39
2023-02-17T17:51:00.965Z,11.38
2023-02-17T17:53:29.817Z,11.37
2023-02-17T17:55:57.448Z,11.35
2023-02-17T17:58:25.170Z,11.39
2023-02-17T18:00:56.946Z,11.36
2023-02-17T18:03:25.606Z,11.37
2023-02-17T18:05:55.438Z,11.37
2023-02-17T18:08:24.853Z,11.36
2023-02-17T18:10:52.278Z,11.34
2023-02-17T18:13:20.878Z,11.35
2023-02-17T18:15:49.360Z,11.35
2023-02-17T18:18:18.339Z,11.34
2023-02-17T18:20:46.880Z,11.36
2023-02-17T18:23:15.560Z,11.33
2023-02-17T18:25:43.551Z,11.34
2023-02-17T18:28:11.133Z,11.34
2023-02-17T18:30:40.927Z,11.32
2023-02-17T18:33:10.003Z,11.31
2023-02-17T18:35:40.130Z,11.32
2023-02-17T18:38:07.505Z,11.31
2023-02-17T18:40:41.270Z,11.34
2023-02-17T18:43:10.285Z,11.35
2023-02-17T18:45:37.808Z,11.33
2023-02-17T18:48:07.019Z,11.33
2023-02-17T18:50:37.026Z,11.31
2023-02-17T18:53:05.461Z,11.31
2023-02-17T18:55:33.047Z,11.31
2023-02-17T18:58:00.975Z,11.30
2023-02-17T19:00:30.502Z,11.29
2023-02-17T19:03:06.767Z,11.26
2023-02-17T19:05:35.664Z,11.24
2023-02-17T19:08:04.913Z,11.24
2023-02-17T19:10:33.116Z,11.23
2023-02-17T19:13:00.706Z,11.22
2023-02-17T19:15:28.973Z,11.24
2023-02-17T19:17:59.917Z,11.24
2023-02-17T19:20:31.444Z,11.20
2023-02-17T19:23:04.955Z,11.20
2023-02-17T19:25:33.058Z,11.19
2023-02-17T19:28:03.155Z,11.16
2023-02-17T19:30:32.042Z,11.15
2023-02-17T19:33:01.088Z,11.12
2023-02-17T19:35:29.176Z,11.11
2023-02-17T19:37:56.456Z,11.10
2023-02-17T19:40:30.000Z,11.06
2023-02-17T19:42:58.658Z,11.06
2023-02-17T19:45:26.812Z,11.05
2023-02-17T19:47:57.701Z,11.03
2023-02-17T19:50:26.161Z,11.00
2023-02-17T19:52:56.293Z,10.96
2023-02-17T19:55:26.100Z,10.92
2023-02-17T19:57:59.245Z,10.88
2023-02-17T20:00:26.644Z,10.85
2023-02-17T20:02:55.633Z,10.82
2023-02-17T20:05:23.284Z,10.78
2023-02-17T20:07:51.289Z,10.76
2023-02-17T20:10:20.500Z,10.73
2023-02-17T20:12:49.444Z,10.72
2023-02-17T20:15:18.333Z,10.71
2023-02-17T20:17:47.035Z,10.71
2023-02-17T20:20:14.416Z,10.72
2023-02-17T20:22:42.038Z,10.73
2023-02-17T20:25:11.796Z,10.75
2023-02-17T20:27:40.162Z,10.76
2023-02-17T20:30:08.660Z,10.79
2023-02-17T20:32:37.025Z,10.77
2023-02-17T20:35:07.007Z,10.77
2023-02-17T20:37:36.517Z,10.72
2023-02-17T20:40:06.328Z,10.72
2023-02-17T20:42:34.830Z,10.71
2023-02-17T20:45:02.817Z,10.69
2023-02-17T20:47:30.484Z,10.67
2023-02-17T20:49:57.918Z,10.65
2023-02-17T20:52:25.383Z,10.65
2023-02-17T20:54:52.722Z,10.64
2023-02-17T20:57:20.934Z,10.64
2023-02-17T20:59:50.620Z,10.65
2023-02-17T21:02:18.611Z,10.65
2023-02-17T21:04:46.024Z,10.64
2023-02-17T21:07:13.798Z,10.61
2023-02-17T21:09:41.200Z,10.60
2023-02-17T21:12:08.582Z,10.59
2023-02-17T21:14:35.869Z,10.59
2023-02-17T21:17:03.247Z,10.57
2023-02-17T21:19:30.570Z,10.56
2023-02-17T21:21:58.995Z,10.55
2023-02-17T21:24:26.237Z,10.51
2023-02-17T21:27:01.514Z,10.47
2023-02-17T21:29:28.829Z,10.43
2023-02-17T21:31:57.170Z,10.44
2023-02-17T21:34:25.150Z,10.44
2023-02-17T21:36:52.537Z,10.44
2023-02-17T21:39:20.817Z,10.45
2023-02-17T21:41:48.579Z,10.45
2023-02-17T21:44:36.395Z,10.45
2023-02-17T21:47:04.059Z,10.45
2023-02-17T21:49:32.708Z,10.45
2023-02-17T21:51:59.996Z,10.43
2023-02-17T21:54:27.420Z,10.45
2023-02-17T21:56:54.753Z,10.46
2023-02-17T21:59:23.866Z,10.45
2023-02-17T22:01:53.044Z,10.47
2023-02-17T22:04:21.616Z,10.47
2023-02-17T22:06:49.929Z,10.45
2023-02-17T22:09:18.613Z,10.44
2023-02-17T22:11:47.070Z,10.42
2023-02-17T22:14:21.538Z,10.45
2023-02-17T22:16:49.851Z,10.44
2023-02-17T22:19:25.004Z,10.43
2023-02-17T22:21:52.879Z,10.43
2023-02-17T22:24:27.367Z,10.42
2023-02-17T22:26:56.022Z,10.42
2023-02-17T22:29:24.232Z,10.41
2023-02-17T22:31:55.819Z,10.40
2023-02-17T22:34:27.824Z,10.38
2023-02-17T22:36:55.773Z,10.40
2023-02-17T22:39:25.745Z,10.40
2023-02-17T22:41:53.527Z,10.43
2023-02-17T22:44:22.128Z,10.44
2023-02-17T22:46:49.685Z,10.44
2023-02-17T22:49:17.197Z,10.42
2023-02-17T22:51:44.475Z,10.38
2023-02-17T22:54:12.766Z,10.40
2023-02-17T22:56:41.089Z,10.40
2023-02-17T22:59:08.469Z,10.42
2023-02-17T23:01:38.026Z,10.40
2023-02-17T23:04:06.836Z,10.38
2023-02-17T23:06:38.201Z,10.38
2023-02-17T23:09:09.577Z,10.38
2023-02-17T23:11:49.893Z,10.37
2023-02-17T23:14:33.791Z,10.37
2023-02-17T23:17:10.033Z,10.35
2023-02-17T23:19:39.826Z,10.36
2023-02-17T23:22:16.206Z,10.38
2023-02-17T23:24:47.181Z,10.39
2023-02-17T23:27:15.600Z,10.39
2023-02-17T23:29:43.052Z,10.40
2023-02-17T23:32:10.652Z,10.42
2023-02-17T23:34:39.191Z,10.44
2023-02-17T23:37:06.846Z,10.45
2023-02-17T23:39:39.270Z,10.46
2023-02-17T23:42:07.010Z,10.45
2023-02-17T23:44:34.253Z,10.47
2023-02-17T23:47:03.858Z,10.47
2023-02-17T23:49:32.419Z,10.45
2023-02-17T23:52:00.004Z,10.46
2023-02-17T23:54:27.815Z,10.47
2023-02-17T23:57:02.431Z,10.45
2023-02-17T23:59:31.117Z,10.46
